KMMI/MMI METAR and TAF weather

Enter ICAO airport designator
Station Type Date Time Source
KMMI METAR 2020/01/20 10:15 UTC NOAA

KMMI 201015Z AUTO 00000KT 10SM OVC028 M06/M10 A3039 RMK A01


Station Type Date Time Source
KMMI Decoded METAR 2020/01/20 10:15 UTC NOAA

Station name not available
Jan 20, 2020 - 05:15 AM EST / 2020.01.20 1015 UTC
Wind: Calm:0
Visibility: 10 mile(s):0
Sky conditions: overcast
Temperature: 21 F (-6 C)
Dew Point: 14 F (-10 C)
Relative Humidity: 73%
Pressure (altimeter): 30.39 in. Hg (1029 hPa)
ob: KMMI 201015Z AUTO 00000KT 10SM OVC028 M06/M10 A3039 RMK A01
cycle: 10

Station Type Date Time Source
KMMI TAF UTC NOAA

Error!

Example: see airport list